sensor_id;sensor_type;location;lat;lon;timestamp;temperature;humidity
7046;DHT22;3564;53.326;10.356;2022-11-14T00:00:52;12.20;99.90
7046;DHT22;3564;53.326;10.356;2022-11-14T00:03:18;12.20;99.90
7046;DHT22;3564;53.326;10.356;2022-11-14T00:05:44;12.20;99.90
7046;DHT22;3564;53.326;10.356;2022-11-14T00:08:36;12.20;99.90
7046;DHT22;3564;53.326;10.356;2022-11-14T00:11:02;12.20;99.90
7046;DHT22;3564;53.326;10.356;2022-11-14T00:13:27;12.20;99.90
7046;DHT22;3564;53.326;10.356;2022-11-14T00:15:53;12.20;99.90
7046;DHT22;3564;53.326;10.356;2022-11-14T00:18:19;12.20;99.90
7046;DHT22;3564;53.326;10.356;2022-11-14T00:20:51;12.20;99.90
7046;DHT22;3564;53.326;10.356;2022-11-14T00:23:19;12.20;99.90
7046;DHT22;3564;53.326;10.356;2022-11-14T00:25:45;12.20;99.90
7046;DHT22;3564;53.326;10.356;2022-11-14T00:28:11;12.20;99.90
7046;DHT22;3564;53.326;10.356;2022-11-14T00:30:37;12.20;99.90
7046;DHT22;3564;53.326;10.356;2022-11-14T00:33:02;12.20;99.90
7046;DHT22;3564;53.326;10.356;2022-11-14T00:35:28;12.20;99.90
7046;DHT22;3564;53.326;10.356;2022-11-14T00:37:54;12.20;99.90
7046;DHT22;3564;53.326;10.356;2022-11-14T00:40:19;12.20;99.90
7046;DHT22;3564;53.326;10.356;2022-11-14T00:42:48;12.20;99.90
7046;DHT22;3564;53.326;10.356;2022-11-14T00:45:13;12.20;99.90
7046;DHT22;3564;53.326;10.356;2022-11-14T00:47:40;12.20;99.90
7046;DHT22;3564;53.326;10.356;2022-11-14T00:50:08;12.20;99.90
7046;DHT22;3564;53.326;10.356;2022-11-14T00:52:34;12.20;99.90
7046;DHT22;3564;53.326;10.356;2022-11-14T00:54:59;12.20;99.90
7046;DHT22;3564;53.326;10.356;2022-11-14T00:57:25;12.20;99.90
7046;DHT22;3564;53.326;10.356;2022-11-14T00:59:50;12.20;99.90
7046;DHT22;3564;53.326;10.356;2022-11-14T01:02:20;12.20;99.90
7046;DHT22;3564;53.326;10.356;2022-11-14T01:04:45;12.20;99.90
7046;DHT22;3564;53.326;10.356;2022-11-14T01:07:11;12.20;99.90
7046;DHT22;3564;53.326;10.356;2022-11-14T01:09:36;12.20;99.90
7046;DHT22;3564;53.326;10.356;2022-11-14T01:12:02;12.20;99.90
7046;DHT22;3564;53.326;10.356;2022-11-14T01:14:27;12.10;99.90
7046;DHT22;3564;53.326;10.356;2022-11-14T01:16:53;12.20;99.90
7046;DHT22;3564;53.326;10.356;2022-11-14T01:19:18;12.10;99.90
7046;DHT22;3564;53.326;10.356;2022-11-14T01:21:44;12.20;99.90
7046;DHT22;3564;53.326;10.356;2022-11-14T01:24:09;12.10;99.90
7046;DHT22;3564;53.326;10.356;2022-11-14T01:26:35;12.10;99.90
7046;DHT22;3564;53.326;10.356;2022-11-14T01:29:00;12.10;99.90
7046;DHT22;3564;53.326;10.356;2022-11-14T01:31:26;12.10;99.90
7046;DHT22;3564;53.326;10.356;2022-11-14T01:33:53;12.10;99.90
7046;DHT22;3564;53.326;10.356;2022-11-14T01:36:19;12.10;99.90
7046;DHT22;3564;53.326;10.356;2022-11-14T01:38:45;12.10;99.90
7046;DHT22;3564;53.326;10.356;2022-11-14T01:41:15;12.10;99.90
7046;DHT22;3564;53.326;10.356;2022-11-14T01:43:41;12.10;99.90
7046;DHT22;3564;53.326;10.356;2022-11-14T01:53:47;12.10;99.90
7046;DHT22;3564;53.326;10.356;2022-11-14T01:56:19;12.10;99.90
7046;DHT22;3564;53.326;10.356;2022-11-14T01:58:55;12.10;99.90
7046;DHT22;3564;53.326;10.356;2022-11-14T02:01:22;12.10;99.90
7046;DHT22;3564;53.326;10.356;2022-11-14T02:03:50;12.10;99.90
7046;DHT22;3564;53.326;10.356;2022-11-14T02:06:20;12.10;99.90
7046;DHT22;3564;53.326;10.356;2022-11-14T02:08:48;12.10;99.90
7046;DHT22;3564;53.326;10.356;2022-11-14T02:11:15;12.10;99.90
7046;DHT22;3564;53.326;10.356;2022-11-14T02:13:40;12.10;99.90
7046;DHT22;3564;53.326;10.356;2022-11-14T02:16:06;12.10;99.90
7046;DHT22;3564;53.326;10.356;2022-11-14T02:18:31;12.10;99.90
7046;DHT22;3564;53.326;10.356;2022-11-14T02:20:57;12.10;99.90
7046;DHT22;3564;53.326;10.356;2022-11-14T02:23:28;12.10;99.90
7046;DHT22;3564;53.326;10.356;2022-11-14T02:25:54;12.10;99.90
7046;DHT22;3564;53.326;10.356;2022-11-14T02:28:20;12.10;99.90
7046;DHT22;3564;53.326;10.356;2022-11-14T02:30:48;12.10;99.90
7046;DHT22;3564;53.326;10.356;2022-11-14T02:33:14;12.10;99.90
7046;DHT22;3564;53.326;10.356;2022-11-14T02:35:40;12.10;99.90
7046;DHT22;3564;53.326;10.356;2022-11-14T02:38:06;12.10;99.90
7046;DHT22;3564;53.326;10.356;2022-11-14T02:40:32;12.10;99.90
7046;DHT22;3564;53.326;10.356;2022-11-14T02:42:58;12.10;99.90
7046;DHT22;3564;53.326;10.356;2022-11-14T02:45:24;12.10;99.90
7046;DHT22;3564;53.326;10.356;2022-11-14T02:47:49;12.10;99.90
7046;DHT22;3564;53.326;10.356;2022-11-14T02:50:18;12.10;99.90
7046;DHT22;3564;53.326;10.356;2022-11-14T02:52:43;12.10;99.90
7046;DHT22;3564;53.326;10.356;2022-11-14T02:55:09;12.10;99.90
7046;DHT22;3564;53.326;10.356;2022-11-14T02:57:35;12.10;99.90
7046;DHT22;3564;53.326;10.356;2022-11-14T03:00:00;12.10;99.90
7046;DHT22;3564;53.326;10.356;2022-11-14T03:02:26;12.10;99.90
7046;DHT22;3564;53.326;10.356;2022-11-14T03:04:52;12.10;99.90
7046;DHT22;3564;53.326;10.356;2022-11-14T03:07:17;12.10;99.90
7046;DHT22;3564;53.326;10.356;2022-11-14T03:09:43;12.00;99.90
7046;DHT22;3564;53.326;10.356;2022-11-14T03:12:09;12.00;99.90
7046;DHT22;3564;53.326;10.356;2022-11-14T03:14:34;12.10;99.90
7046;DHT22;3564;53.326;10.356;2022-11-14T03:17:00;12.00;99.90
7046;DHT22;3564;53.326;10.356;2022-11-14T03:19:26;12.10;99.90
7046;DHT22;3564;53.326;10.356;2022-11-14T03:21:51;12.10;99.90
7046;DHT22;3564;53.326;10.356;2022-11-14T03:24:17;12.10;99.90
7046;DHT22;3564;53.326;10.356;2022-11-14T03:26:42;12.00;99.90
7046;DHT22;3564;53.326;10.356;2022-11-14T03:29:08;12.00;99.90
7046;DHT22;3564;53.326;10.356;2022-11-14T03:31:35;12.00;99.90
7046;DHT22;3564;53.326;10.356;2022-11-14T03:34:01;12.00;99.90
7046;DHT22;3564;53.326;10.356;2022-11-14T03:36:26;12.00;99.90
7046;DHT22;3564;53.326;10.356;2022-11-14T03:38:52;12.00;99.90
7046;DHT22;3564;53.326;10.356;2022-11-14T03:41:17;11.90;99.90
7046;DHT22;3564;53.326;10.356;2022-11-14T03:43:43;12.00;99.90
7046;DHT22;3564;53.326;10.356;2022-11-14T03:46:08;12.00;99.90
7046;DHT22;3564;53.326;10.356;2022-11-14T03:48:34;12.00;99.90
7046;DHT22;3564;53.326;10.356;2022-11-14T03:50:59;12.00;99.90
7046;DHT22;3564;53.326;10.356;2022-11-14T03:53:25;12.00;99.90
7046;DHT22;3564;53.326;10.356;2022-11-14T03:55:51;12.00;99.90
7046;DHT22;3564;53.326;10.356;2022-11-14T03:58:17;11.90;99.90
7046;DHT22;3564;53.326;10.356;2022-11-14T04:00:42;11.90;99.90
7046;DHT22;3564;53.326;10.356;2022-11-14T04:03:08;11.90;99.90
7046;DHT22;3564;53.326;10.356;2022-11-14T04:05:33;11.90;99.90
7046;DHT22;3564;53.326;10.356;2022-11-14T04:07:59;11.90;99.90
7046;DHT22;3564;53.326;10.356;2022-11-14T04:10:25;11.90;99.90
7046;DHT22;3564;53.326;10.356;2022-11-14T04:12:52;11.90;99.90
7046;DHT22;3564;53.326;10.356;2022-11-14T04:15:18;11.90;99.90
7046;DHT22;3564;53.326;10.356;2022-11-14T04:17:44;11.90;99.90
7046;DHT22;3564;53.326;10.356;2022-11-14T04:20:11;11.90;99.90
7046;DHT22;3564;53.326;10.356;2022-11-14T04:22:37;11.90;99.90
7046;DHT22;3564;53.326;10.356;2022-11-14T04:25:03;11.90;99.90
7046;DHT22;3564;53.326;10.356;2022-11-14T04:27:29;11.90;99.90
7046;DHT22;3564;53.326;10.356;2022-11-14T04:29:54;11.90;99.90
7046;DHT22;3564;53.326;10.356;2022-11-14T04:32:20;11.90;99.90
7046;DHT22;3564;53.326;10.356;2022-11-14T04:34:45;11.90;99.90
7046;DHT22;3564;53.326;10.356;2022-11-14T04:37:11;11.90;99.90
7046;DHT22;3564;53.326;10.356;2022-11-14T04:39:37;11.90;99.90
7046;DHT22;3564;53.326;10.356;2022-11-14T04:42:03;11.90;99.90
7046;DHT22;3564;53.326;10.356;2022-11-14T04:44:29;11.90;99.90
7046;DHT22;3564;53.326;10.356;2022-11-14T04:46:54;11.80;99.90
7046;DHT22;3564;53.326;10.356;2022-11-14T04:49:20;11.80;99.90
7046;DHT22;3564;53.326;10.356;2022-11-14T04:51:45;11.80;99.90
7046;DHT22;3564;53.326;10.356;2022-11-14T04:54:11;11.80;99.90
7046;DHT22;3564;53.326;10.356;2022-11-14T04:56:37;11.80;99.90
7046;DHT22;3564;53.326;10.356;2022-11-14T04:59:03;11.80;99.90
7046;DHT22;3564;53.326;10.356;2022-11-14T05:01:28;11.80;99.90
7046;DHT22;3564;53.326;10.356;2022-11-14T05:03:54;11.90;99.90
7046;DHT22;3564;53.326;10.356;2022-11-14T05:06:20;11.90;99.90
7046;DHT22;3564;53.326;10.356;2022-11-14T05:08:45;11.90;99.90
7046;DHT22;3564;53.326;10.356;2022-11-14T05:11:17;11.90;99.90
7046;DHT22;3564;53.326;10.356;2022-11-14T05:13:43;11.90;99.90
7046;DHT22;3564;53.326;10.356;2022-11-14T05:16:09;11.80;99.90
7046;DHT22;3564;53.326;10.356;2022-11-14T05:18:35;11.80;99.90
7046;DHT22;3564;53.326;10.356;2022-11-14T05:21:01;11.80;99.90
7046;DHT22;3564;53.326;10.356;2022-11-14T05:23:27;11.90;99.90
7046;DHT22;3564;53.326;10.356;2022-11-14T05:28:24;11.80;99.90
7046;DHT22;3564;53.326;10.356;2022-11-14T05:30:49;11.80;99.90
7046;DHT22;3564;53.326;10.356;2022-11-14T05:33:15;11.90;99.90
7046;DHT22;3564;53.326;10.356;2022-11-14T05:35:40;11.80;99.90
7046;DHT22;3564;53.326;10.356;2022-11-14T05:38:06;11.90;99.90
7046;DHT22;3564;53.326;10.356;2022-11-14T05:40:31;11.80;99.90
7046;DHT22;3564;53.326;10.356;2022-11-14T05:42:57;11.90;99.90
7046;DHT22;3564;53.326;10.356;2022-11-14T05:45:22;11.90;99.90
7046;DHT22;3564;53.326;10.356;2022-11-14T05:47:48;11.90;99.90
7046;DHT22;3564;53.326;10.356;2022-11-14T05:50:13;11.90;99.90
7046;DHT22;3564;53.326;10.356;2022-11-14T05:52:40;11.90;99.90
7046;DHT22;3564;53.326;10.356;2022-11-14T05:55:07;11.90;99.90
7046;DHT22;3564;53.326;10.356;2022-11-14T05:57:33;11.80;99.90
7046;DHT22;3564;53.326;10.356;2022-11-14T06:00:00;11.80;99.90
7046;DHT22;3564;53.326;10.356;2022-11-14T06:02:25;11.90;99.90
7046;DHT22;3564;53.326;10.356;2022-11-14T06:04:51;11.80;99.90
7046;DHT22;3564;53.326;10.356;2022-11-14T06:07:16;11.90;99.90
7046;DHT22;3564;53.326;10.356;2022-11-14T06:09:42;11.80;99.90
7046;DHT22;3564;53.326;10.356;2022-11-14T06:12:07;11.80;99.90
7046;DHT22;3564;53.326;10.356;2022-11-14T06:14:33;11.80;99.90
7046;DHT22;3564;53.326;10.356;2022-11-14T06:16:58;11.90;99.90
7046;DHT22;3564;53.326;10.356;2022-11-14T06:19:24;11.80;99.90
7046;DHT22;3564;53.326;10.356;2022-11-14T06:21:49;11.80;99.90
7046;DHT22;3564;53.326;10.356;2022-11-14T06:24:16;11.80;99.90
7046;DHT22;3564;53.326;10.356;2022-11-14T06:26:41;11.80;99.90
7046;DHT22;3564;53.326;10.356;2022-11-14T06:29:09;11.80;99.90
7046;DHT22;3564;53.326;10.356;2022-11-14T06:31:34;11.80;99.90
7046;DHT22;3564;53.326;10.356;2022-11-14T06:34:00;11.80;99.90
7046;DHT22;3564;53.326;10.356;2022-11-14T06:36:25;11.80;99.90
7046;DHT22;3564;53.326;10.356;2022-11-14T06:38:51;11.80;99.90
7046;DHT22;3564;53.326;10.356;2022-11-14T06:41:18;11.80;99.90
7046;DHT22;3564;53.326;10.356;2022-11-14T06:43:46;11.80;99.90
7046;DHT22;3564;53.326;10.356;2022-11-14T06:46:14;11.80;99.90
7046;DHT22;3564;53.326;10.356;2022-11-14T06:48:41;11.80;99.90
7046;DHT22;3564;53.326;10.356;2022-11-14T06:51:08;11.80;99.90
7046;DHT22;3564;53.326;10.356;2022-11-14T06:53:35;11.70;99.90
7046;DHT22;3564;53.326;10.356;2022-11-14T06:56:13;11.70;99.90
7046;DHT22;3564;53.326;10.356;2022-11-14T06:58:44;11.70;99.90
7046;DHT22;3564;53.326;10.356;2022-11-14T07:01:14;11.70;99.90
7046;DHT22;3564;53.326;10.356;2022-11-14T07:03:40;11.70;99.90
7046;DHT22;3564;53.326;10.356;2022-11-14T07:06:08;11.70;99.90
7046;DHT22;3564;53.326;10.356;2022-11-14T07:08:34;11.70;99.90
7046;DHT22;3564;53.326;10.356;2022-11-14T07:11:05;11.70;99.90
7046;DHT22;3564;53.326;10.356;2022-11-14T07:13:31;11.70;99.90
7046;DHT22;3564;53.326;10.356;2022-11-14T07:15:57;11.70;99.90
7046;DHT22;3564;53.326;10.356;2022-11-14T07:18:22;11.70;99.90
7046;DHT22;3564;53.326;10.356;2022-11-14T07:20:48;11.70;99.90
7046;DHT22;3564;53.326;10.356;2022-11-14T07:23:14;11.60;99.90
7046;DHT22;3564;53.326;10.356;2022-11-14T07:25:40;11.70;99.90
7046;DHT22;3564;53.326;10.356;2022-11-14T07:28:06;11.60;99.90
7046;DHT22;3564;53.326;10.356;2022-11-14T07:30:32;11.60;99.90
7046;DHT22;3564;53.326;10.356;2022-11-14T07:32:59;11.60;99.90
7046;DHT22;3564;53.326;10.356;2022-11-14T07:35:25;11.60;99.90
7046;DHT22;3564;53.326;10.356;2022-11-14T07:37:50;11.60;99.90
7046;DHT22;3564;53.326;10.356;2022-11-14T07:40:17;11.60;99.90
7046;DHT22;3564;53.326;10.356;2022-11-14T07:42:43;11.60;99.90
7046;DHT22;3564;53.326;10.356;2022-11-14T07:45:09;11.60;99.90
7046;DHT22;3564;53.326;10.356;2022-11-14T07:47:35;11.60;99.90
7046;DHT22;3564;53.326;10.356;2022-11-14T07:50:01;11.60;99.90
7046;DHT22;3564;53.326;10.356;2022-11-14T07:52:26;11.60;99.90
7046;DHT22;3564;53.326;10.356;2022-11-14T07:54:52;11.60;99.90
7046;DHT22;3564;53.326;10.356;2022-11-14T07:57:17;11.60;99.90
7046;DHT22;3564;53.326;10.356;2022-11-14T07:59:43;11.60;99.90
7046;DHT22;3564;53.326;10.356;2022-11-14T08:02:11;11.60;99.90
7046;DHT22;3564;53.326;10.356;2022-11-14T08:04:38;11.60;99.90
7046;DHT22;3564;53.326;10.356;2022-11-14T08:07:04;11.70;99.90
7046;DHT22;3564;53.326;10.356;2022-11-14T08:09:29;11.70;99.90
7046;DHT22;3564;53.326;10.356;2022-11-14T08:11:55;11.70;99.90
7046;DHT22;3564;53.326;10.356;2022-11-14T08:14:21;11.70;99.90
7046;DHT22;3564;53.326;10.356;2022-11-14T08:16:46;11.70;99.90
7046;DHT22;3564;53.326;10.356;2022-11-14T08:19:12;11.70;99.90
7046;DHT22;3564;53.326;10.356;2022-11-14T08:21:37;11.70;99.90
7046;DHT22;3564;53.326;10.356;2022-11-14T08:24:03;11.70;99.90
7046;DHT22;3564;53.326;10.356;2022-11-14T08:26:29;11.70;99.90
7046;DHT22;3564;53.326;10.356;2022-11-14T08:28:55;11.70;99.90
7046;DHT22;3564;53.326;10.356;2022-11-14T08:31:21;11.80;99.90
7046;DHT22;3564;53.326;10.356;2022-11-14T08:33:47;11.80;99.90
7046;DHT22;3564;53.326;10.356;2022-11-14T08:36:14;11.80;99.90
7046;DHT22;3564;53.326;10.356;2022-11-14T08:38:40;11.80;99.90
7046;DHT22;3564;53.326;10.356;2022-11-14T08:41:05;11.80;99.90
7046;DHT22;3564;53.326;10.356;2022-11-14T08:43:31;11.80;99.90
7046;DHT22;3564;53.326;10.356;2022-11-14T08:46:02;11.80;99.90
7046;DHT22;3564;53.326;10.356;2022-11-14T08:48:29;11.80;99.90
7046;DHT22;3564;53.326;10.356;2022-11-14T08:50:55;11.80;99.90
7046;DHT22;3564;53.326;10.356;2022-11-14T08:53:21;11.80;99.90
7046;DHT22;3564;53.326;10.356;2022-11-14T08:55:47;11.80;99.90
7046;DHT22;3564;53.326;10.356;2022-11-14T08:58:13;11.80;99.90
7046;DHT22;3564;53.326;10.356;2022-11-14T09:00:39;11.80;99.90
7046;DHT22;3564;53.326;10.356;2022-11-14T09:03:09;11.80;99.90
7046;DHT22;3564;53.326;10.356;2022-11-14T09:05:36;11.80;99.90
7046;DHT22;3564;53.326;10.356;2022-11-14T09:08:02;11.80;99.90
7046;DHT22;3564;53.326;10.356;2022-11-14T09:10:28;11.80;99.90
7046;DHT22;3564;53.326;10.356;2022-11-14T09:12:55;11.90;99.90
7046;DHT22;3564;53.326;10.356;2022-11-14T09:15:21;11.90;99.90
7046;DHT22;3564;53.326;10.356;2022-11-14T09:17:47;11.90;99.90
7046;DHT22;3564;53.326;10.356;2022-11-14T09:20:13;11.90;99.90
7046;DHT22;3564;53.326;10.356;2022-11-14T09:22:38;12.00;99.90
7046;DHT22;3564;53.326;10.356;2022-11-14T09:25:04;12.00;99.90
7046;DHT22;3564;53.326;10.356;2022-11-14T09:27:30;12.00;99.90
7046;DHT22;3564;53.326;10.356;2022-11-14T09:29:55;12.10;99.90
7046;DHT22;3564;53.326;10.356;2022-11-14T09:32:21;12.10;99.90
7046;DHT22;3564;53.326;10.356;2022-11-14T09:34:46;12.10;99.90
7046;DHT22;3564;53.326;10.356;2022-11-14T09:37:12;12.10;99.90
7046;DHT22;3564;53.326;10.356;2022-11-14T09:39:38;12.20;99.90
7046;DHT22;3564;53.326;10.356;2022-11-14T09:47:29;12.10;99.90
7046;DHT22;3564;53.326;10.356;2022-11-14T09:50:05;12.20;99.90
7046;DHT22;3564;53.326;10.356;2022-11-14T09:52:39;12.20;99.90
7046;DHT22;3564;53.326;10.356;2022-11-14T09:55:31;12.20;99.90
7046;DHT22;3564;53.326;10.356;2022-11-14T09:57:57;12.20;99.90
7046;DHT22;3564;53.326;10.356;2022-11-14T10:00:25;12.20;99.90
7046;DHT22;3564;53.326;10.356;2022-11-14T10:03:13;12.20;99.90
7046;DHT22;3564;53.326;10.356;2022-11-14T10:06:13;12.30;99.90
7046;DHT22;3564;53.326;10.356;2022-11-14T10:11:18;12.30;99.90
7046;DHT22;3564;53.326;10.356;2022-11-14T10:13:52;12.30;99.90
7046;DHT22;3564;53.326;10.356;2022-11-14T10:27:26;12.50;99.90
7046;DHT22;3564;53.326;10.356;2022-11-14T10:35:28;12.70;99.90
7046;DHT22;3564;53.326;10.356;2022-11-14T10:38:24;12.70;99.90
7046;DHT22;3564;53.326;10.356;2022-11-14T10:40:50;12.70;99.80
7046;DHT22;3564;53.326;10.356;2022-11-14T10:46:25;12.80;99.80
7046;DHT22;3564;53.326;10.356;2022-11-14T10:48:55;12.80;99.60
7046;DHT22;3564;53.326;10.356;2022-11-14T10:51:36;12.80;99.50
7046;DHT22;3564;53.326;10.356;2022-11-14T10:56:53;12.80;99.30
7046;DHT22;3564;53.326;10.356;2022-11-14T10:59:19;12.80;99.40
7046;DHT22;3564;53.326;10.356;2022-11-14T11:01:52;12.80;99.40
7046;DHT22;3564;53.326;10.356;2022-11-14T11:07:12;12.90;99.50
7046;DHT22;3564;53.326;10.356;2022-11-14T11:10:02;12.90;99.50
7046;DHT22;3564;53.326;10.356;2022-11-14T11:13:09;13.00;99.50
7046;DHT22;3564;53.326;10.356;2022-11-14T11:15:40;13.00;99.40
7046;DHT22;3564;53.326;10.356;2022-11-14T11:23:34;13.10;99.40
7046;DHT22;3564;53.326;10.356;2022-11-14T11:26:03;13.10;99.30
7046;DHT22;3564;53.326;10.356;2022-11-14T11:28:32;13.10;99.30
7046;DHT22;3564;53.326;10.356;2022-11-14T11:31:03;13.20;99.30
7046;DHT22;3564;53.326;10.356;2022-11-14T11:33:31;13.20;99.20
7046;DHT22;3564;53.326;10.356;2022-11-14T11:36:05;13.20;99.20
7046;DHT22;3564;53.326;10.356;2022-11-14T11:38:32;13.20;99.20
7046;DHT22;3564;53.326;10.356;2022-11-14T11:41:30;13.20;99.20
7046;DHT22;3564;53.326;10.356;2022-11-14T11:44:01;13.30;99.20
7046;DHT22;3564;53.326;10.356;2022-11-14T11:46:55;13.20;99.10
7046;DHT22;3564;53.326;10.356;2022-11-14T11:52:18;13.30;99.20
7046;DHT22;3564;53.326;10.356;2022-11-14T11:58:08;13.30;99.20
7046;DHT22;3564;53.326;10.356;2022-11-14T12:00:37;13.40;99.40
7046;DHT22;3564;53.326;10.356;2022-11-14T12:03:08;13.40;99.30
7046;DHT22;3564;53.326;10.356;2022-11-14T12:06:14;13.40;99.20
7046;DHT22;3564;53.326;10.356;2022-11-14T12:09:20;13.50;99.20
7046;DHT22;3564;53.326;10.356;2022-11-14T12:12:10;13.50;99.50
7046;DHT22;3564;53.326;10.356;2022-11-14T12:25:52;13.70;99.30
7046;DHT22;3564;53.326;10.356;2022-11-14T12:31:33;13.80;99.00
7046;DHT22;3564;53.326;10.356;2022-11-14T12:34:26;13.80;98.90
7046;DHT22;3564;53.326;10.356;2022-11-14T12:36:53;13.80;98.80
7046;DHT22;3564;53.326;10.356;2022-11-14T12:39:29;13.80;98.80
7046;DHT22;3564;53.326;10.356;2022-11-14T12:42:04;13.80;98.80
7046;DHT22;3564;53.326;10.356;2022-11-14T12:44:34;13.90;98.90
7046;DHT22;3564;53.326;10.356;2022-11-14T12:52:02;14.00;98.90
7046;DHT22;3564;53.326;10.356;2022-11-14T12:54:45;14.00;98.80
7046;DHT22;3564;53.326;10.356;2022-11-14T12:57:19;14.10;98.90
7046;DHT22;3564;53.326;10.356;2022-11-14T13:00:11;14.10;98.70
7046;DHT22;3564;53.326;10.356;2022-11-14T13:06:39;14.10;98.70
7046;DHT22;3564;53.326;10.356;2022-11-14T13:11:43;14.10;98.60
7046;DHT22;3564;53.326;10.356;2022-11-14T13:14:49;14.20;98.70
7046;DHT22;3564;53.326;10.356;2022-11-14T13:17:34;14.20;98.60
7046;DHT22;3564;53.326;10.356;2022-11-14T13:20:24;14.20;98.60
7046;DHT22;3564;53.326;10.356;2022-11-14T13:28:51;14.30;98.40
7046;DHT22;3564;53.326;10.356;2022-11-14T13:31:21;14.20;98.30
7046;DHT22;3564;53.326;10.356;2022-11-14T13:33:57;14.30;98.40
7046;DHT22;3564;53.326;10.356;2022-11-14T13:36:57;14.30;98.30
7046;DHT22;3564;53.326;10.356;2022-11-14T13:39:47;14.40;98.30
7046;DHT22;3564;53.326;10.356;2022-11-14T13:51:05;14.40;98.10
7046;DHT22;3564;53.326;10.356;2022-11-14T13:53:32;14.40;98.10
7046;DHT22;3564;53.326;10.356;2022-11-14T14:06:51;14.40;98.10
7046;DHT22;3564;53.326;10.356;2022-11-14T14:09:51;14.40;98.00
7046;DHT22;3564;53.326;10.356;2022-11-14T14:24:01;14.40;98.20
7046;DHT22;3564;53.326;10.356;2022-11-14T14:28:51;14.60;98.20
7046;DHT22;3564;53.326;10.356;2022-11-14T14:31:22;14.70;98.20
7046;DHT22;3564;53.326;10.356;2022-11-14T14:33:49;14.80;98.10
7046;DHT22;3564;53.326;10.356;2022-11-14T14:36:27;14.80;97.90
7046;DHT22;3564;53.326;10.356;2022-11-14T14:39:16;14.80;97.90
7046;DHT22;3564;53.326;10.356;2022-11-14T14:41:42;14.90;97.90
7046;DHT22;3564;53.326;10.356;2022-11-14T14:44:24;14.90;97.70
7046;DHT22;3564;53.326;10.356;2022-11-14T14:46:51;14.90;97.60
7046;DHT22;3564;53.326;10.356;2022-11-14T14:49:20;14.80;97.60
7046;DHT22;3564;53.326;10.356;2022-11-14T14:51:46;14.70;97.70
7046;DHT22;3564;53.326;10.356;2022-11-14T14:54:23;14.70;97.70
7046;DHT22;3564;53.326;10.356;2022-11-14T14:56:55;14.60;97.70
7046;DHT22;3564;53.326;10.356;2022-11-14T14:59:25;14.50;97.80
7046;DHT22;3564;53.326;10.356;2022-11-14T15:01:51;14.40;97.90
7046;DHT22;3564;53.326;10.356;2022-11-14T15:04:21;14.40;97.90
7046;DHT22;3564;53.326;10.356;2022-11-14T15:06:48;14.30;97.90
7046;DHT22;3564;53.326;10.356;2022-11-14T15:09:31;14.20;98.00
7046;DHT22;3564;53.326;10.356;2022-11-14T15:11:59;14.00;98.10
7046;DHT22;3564;53.326;10.356;2022-11-14T15:14:31;13.90;98.10
7046;DHT22;3564;53.326;10.356;2022-11-14T15:16:58;13.80;98.20
7046;DHT22;3564;53.326;10.356;2022-11-14T15:19:27;13.80;98.40
7046;DHT22;3564;53.326;10.356;2022-11-14T15:22:22;13.70;98.50
7046;DHT22;3564;53.326;10.356;2022-11-14T15:27:44;13.50;98.50
7046;DHT22;3564;53.326;10.356;2022-11-14T15:30:23;13.40;98.70
7046;DHT22;3564;53.326;10.356;2022-11-14T15:32:55;13.30;98.60
7046;DHT22;3564;53.326;10.356;2022-11-14T15:35:32;13.20;98.70
7046;DHT22;3564;53.326;10.356;2022-11-14T15:38:06;13.20;98.70
7046;DHT22;3564;53.326;10.356;2022-11-14T15:40:44;13.10;98.70
7046;DHT22;3564;53.326;10.356;2022-11-14T15:46:22;12.90;98.80
7046;DHT22;3564;53.326;10.356;2022-11-14T15:48:49;12.80;98.80
7046;DHT22;3564;53.326;10.356;2022-11-14T15:51:15;12.80;98.90
7046;DHT22;3564;53.326;10.356;2022-11-14T15:53:44;12.70;99.00
7046;DHT22;3564;53.326;10.356;2022-11-14T15:56:11;12.70;99.20
7046;DHT22;3564;53.326;10.356;2022-11-14T15:58:38;12.60;99.20
7046;DHT22;3564;53.326;10.356;2022-11-14T16:01:03;12.60;99.20
7046;DHT22;3564;53.326;10.356;2022-11-14T16:03:30;12.50;99.00
7046;DHT22;3564;53.326;10.356;2022-11-14T16:05:56;12.50;99.10
7046;DHT22;3564;53.326;10.356;2022-11-14T16:08:21;12.40;99.10
7046;DHT22;3564;53.326;10.356;2022-11-14T16:10:47;12.40;99.10
7046;DHT22;3564;53.326;10.356;2022-11-14T16:13:12;12.30;99.00
7046;DHT22;3564;53.326;10.356;2022-11-14T16:15:38;12.30;99.10
7046;DHT22;3564;53.326;10.356;2022-11-14T16:18:04;12.20;99.20
7046;DHT22;3564;53.326;10.356;2022-11-14T16:20:30;12.20;99.20
7046;DHT22;3564;53.326;10.356;2022-11-14T16:23:01;12.10;99.20
7046;DHT22;3564;53.326;10.356;2022-11-14T16:25:29;12.20;99.30
7046;DHT22;3564;53.326;10.356;2022-11-14T16:27:54;12.10;99.20
7046;DHT22;3564;53.326;10.356;2022-11-14T16:30:22;12.10;99.20
7046;DHT22;3564;53.326;10.356;2022-11-14T16:32:49;12.10;99.30
7046;DHT22;3564;53.326;10.356;2022-11-14T16:35:19;12.00;99.40
7046;DHT22;3564;53.326;10.356;2022-11-14T16:37:45;12.00;99.20
7046;DHT22;3564;53.326;10.356;2022-11-14T16:40:25;12.00;99.30
7046;DHT22;3564;53.326;10.356;2022-11-14T16:42:57;11.90;99.30
7046;DHT22;3564;53.326;10.356;2022-11-14T16:45:23;11.90;99.30
7046;DHT22;3564;53.326;10.356;2022-11-14T16:47:50;11.90;99.30
7046;DHT22;3564;53.326;10.356;2022-11-14T16:50:17;11.80;99.30
7046;DHT22;3564;53.326;10.356;2022-11-14T16:52:43;11.80;99.40
7046;DHT22;3564;53.326;10.356;2022-11-14T16:55:10;11.80;99.30
7046;DHT22;3564;53.326;10.356;2022-11-14T16:57:37;11.70;99.40
7046;DHT22;3564;53.326;10.356;2022-11-14T17:00:04;11.70;99.50
7046;DHT22;3564;53.326;10.356;2022-11-14T17:02:30;11.70;99.50
7046;DHT22;3564;53.326;10.356;2022-11-14T17:04:55;11.70;99.50
7046;DHT22;3564;53.326;10.356;2022-11-14T17:07:21;11.60;99.50
7046;DHT22;3564;53.326;10.356;2022-11-14T17:09:47;11.60;99.40
7046;DHT22;3564;53.326;10.356;2022-11-14T17:12:12;11.50;99.30
7046;DHT22;3564;53.326;10.356;2022-11-14T17:14:38;11.50;99.50
7046;DHT22;3564;53.326;10.356;2022-11-14T17:17:03;11.50;99.40
7046;DHT22;3564;53.326;10.356;2022-11-14T17:19:29;11.50;99.30
7046;DHT22;3564;53.326;10.356;2022-11-14T17:21:55;11.50;99.40
7046;DHT22;3564;53.326;10.356;2022-11-14T17:24:21;11.40;99.60
7046;DHT22;3564;53.326;10.356;2022-11-14T17:26:46;11.40;99.70
7046;DHT22;3564;53.326;10.356;2022-11-14T17:29:12;11.40;99.60
7046;DHT22;3564;53.326;10.356;2022-11-14T17:31:38;11.40;99.60
7046;DHT22;3564;53.326;10.356;2022-11-14T17:34:03;11.40;99.80
7046;DHT22;3564;53.326;10.356;2022-11-14T17:36:29;11.40;99.80
7046;DHT22;3564;53.326;10.356;2022-11-14T17:38:56;11.30;99.60
7046;DHT22;3564;53.326;10.356;2022-11-14T17:41:22;11.30;99.70
7046;DHT22;3564;53.326;10.356;2022-11-14T17:43:52;11.30;99.80
7046;DHT22;3564;53.326;10.356;2022-11-14T17:46:21;11.30;99.60
7046;DHT22;3564;53.326;10.356;2022-11-14T17:48:49;11.30;99.70
7046;DHT22;3564;53.326;10.356;2022-11-14T17:51:15;11.20;99.60
7046;DHT22;3564;53.326;10.356;2022-11-14T17:53:41;11.20;99.70
7046;DHT22;3564;53.326;10.356;2022-11-14T17:56:10;11.20;99.60
7046;DHT22;3564;53.326;10.356;2022-11-14T17:58:37;11.20;99.60
7046;DHT22;3564;53.326;10.356;2022-11-14T18:01:11;11.20;99.80